createdAt,value
2023-05-22T00:01:56.867Z,13.35
2023-05-22T00:04:23.996Z,16.30
2023-05-22T00:06:50.987Z,15.75
2023-05-22T00:09:18.143Z,17.30
2023-05-22T00:11:45.233Z,13.23
2023-05-22T00:14:13.813Z,17.23
2023-05-22T00:16:41.481Z,16.42
2023-05-22T00:19:17.396Z,13.10
2023-05-22T00:21:44.841Z,15.77
2023-05-22T00:24:11.750Z,13.77
2023-05-22T00:26:38.762Z,15.63
2023-05-22T00:29:08.573Z,16.87
2023-05-22T00:31:35.561Z,15.43
2023-05-22T00:34:02.569Z,16.55
2023-05-22T00:36:29.568Z,18.83
2023-05-22T00:38:56.643Z,14.38
2023-05-22T00:41:23.553Z,11.43
2023-05-22T00:43:51.453Z,13.48
2023-05-22T00:46:21.750Z,14.75
2023-05-22T00:48:49.283Z,12.60
2023-05-22T00:51:16.371Z,14.48
2023-05-22T00:53:43.837Z,16.42
2023-05-22T00:56:10.889Z,12.93
2023-05-22T00:58:37.850Z,14.73
2023-05-22T01:01:07.854Z,14.93
2023-05-22T01:03:36.184Z,14.57
2023-05-22T01:06:03.763Z,14.30
2023-05-22T01:08:30.719Z,13.07
2023-05-22T01:11:04.947Z,13.90
2023-05-22T01:13:49.847Z,16.48
2023-05-22T01:16:19.038Z,19.02
2023-05-22T01:19:03.241Z,15.07
2023-05-22T01:22:16.595Z,14.43
2023-05-22T01:25:17.473Z,15.85
2023-05-22T01:28:22.456Z,16.77
2023-05-22T01:30:51.094Z,14.60
2023-05-22T01:33:18.630Z,15.00
2023-05-22T01:35:48.553Z,13.90
2023-05-22T01:38:16.096Z,11.50
2023-05-22T01:40:45.158Z,13.98
2023-05-22T01:43:13.641Z,15.82
2023-05-22T01:45:40.609Z,13.35
2023-05-22T01:48:07.773Z,14.00
2023-05-22T01:50:34.841Z,14.40
2023-05-22T01:53:50.446Z,16.85
2023-05-22T01:56:22.562Z,17.08
2023-05-22T01:58:54.282Z,15.05
2023-05-22T02:01:22.812Z,14.68
2023-05-22T02:03:52.014Z,15.70
2023-05-22T02:06:20.025Z,17.17
2023-05-22T02:08:47.605Z,15.90
2023-05-22T02:11:15.628Z,15.32
2023-05-22T02:13:42.794Z,14.35
2023-05-22T02:16:09.875Z,15.32
2023-05-22T02:18:36.831Z,14.82
2023-05-22T02:21:05.896Z,15.30
2023-05-22T02:23:32.850Z,16.27
2023-05-22T02:25:59.875Z,15.80
2023-05-22T02:28:27.410Z,13.75
2023-05-22T02:30:54.309Z,14.50
2023-05-22T02:33:21.595Z,14.93
2023-05-22T02:35:48.520Z,14.70
2023-05-22T02:38:15.468Z,14.75
2023-05-22T02:40:42.542Z,14.52
2023-05-22T02:43:09.558Z,15.70
2023-05-22T02:45:36.416Z,17.12
2023-05-22T02:48:03.947Z,14.93
2023-05-22T02:50:30.967Z,15.18
2023-05-22T02:52:57.982Z,16.27
2023-05-22T02:55:24.941Z,15.48
2023-05-22T02:57:51.864Z,16.48
2023-05-22T03:00:19.504Z,15.90
2023-05-22T03:02:46.462Z,14.57
2023-05-22T03:05:18.172Z,15.65
2023-05-22T03:07:48.312Z,18.73
2023-05-22T03:10:15.870Z,17.42
2023-05-22T03:12:42.773Z,14.13
2023-05-22T03:15:10.452Z,15.27
2023-05-22T03:17:37.337Z,14.02
2023-05-22T03:20:05.540Z,14.50
2023-05-22T03:22:32.665Z,13.02
2023-05-22T03:24:59.597Z,12.95
2023-05-22T03:27:26.451Z,15.98
2023-05-22T03:29:53.466Z,13.80
2023-05-22T03:32:20.376Z,13.90
2023-05-22T03:34:47.260Z,13.75
2023-05-22T03:37:14.181Z,14.68
2023-05-22T03:39:42.199Z,15.70
2023-05-22T03:42:09.241Z,15.77
2023-05-22T03:44:36.182Z,16.15
2023-05-22T03:47:03.162Z,11.98
2023-05-22T03:49:30.066Z,13.80
2023-05-22T03:51:57.079Z,12.77
2023-05-22T03:54:23.981Z,16.60
2023-05-22T03:56:51.344Z,11.12
2023-05-22T03:59:18.345Z,15.00
2023-05-22T04:01:47.270Z,15.68
2023-05-22T04:04:14.126Z,11.68
2023-05-22T04:06:44.064Z,12.73
2023-05-22T04:09:12.072Z,11.18
2023-05-22T04:11:42.666Z,11.80
2023-05-22T04:14:10.165Z,11.77
2023-05-22T04:16:37.178Z,11.48
2023-05-22T04:19:04.241Z,10.88
2023-05-22T04:21:34.458Z,9.95
2023-05-22T04:24:02.113Z,12.20
2023-05-22T04:26:32.237Z,11.80
2023-05-22T04:28:59.256Z,13.30
2023-05-22T04:31:26.214Z,13.40
2023-05-22T04:33:54.743Z,10.32
2023-05-22T04:36:26.832Z,11.93
2023-05-22T04:38:54.301Z,10.05
2023-05-22T04:41:28.062Z,10.10
2023-05-22T04:43:54.997Z,10.57
2023-05-22T04:46:22.712Z,11.45
2023-05-22T04:48:49.840Z,11.00
2023-05-22T04:51:16.805Z,8.57
2023-05-22T04:53:43.729Z,10.70
2023-05-22T04:56:12.987Z,13.52
2023-05-22T04:58:40.451Z,8.88
2023-05-22T05:01:07.401Z,9.80
2023-05-22T05:03:34.923Z,10.35
2023-05-22T05:06:01.896Z,10.35
2023-05-22T05:08:28.749Z,9.82
2023-05-22T05:10:55.683Z,11.70
2023-05-22T05:13:22.762Z,12.63
2023-05-22T05:15:49.701Z,9.57
2023-05-22T05:18:17.364Z,10.15
2023-05-22T05:20:44.367Z,12.40
2023-05-22T05:23:11.478Z,12.10
2023-05-22T05:25:38.895Z,10.80
2023-05-22T05:28:10.892Z,13.18
2023-05-22T05:30:40.814Z,10.10
2023-05-22T05:33:08.091Z,10.93
2023-05-22T05:35:35.128Z,13.40
2023-05-22T05:38:02.068Z,9.70
2023-05-22T05:40:29.034Z,12.98
2023-05-22T05:42:56.412Z,9.55
2023-05-22T05:45:23.318Z,12.52
2023-05-22T05:47:50.580Z,12.70
2023-05-22T05:50:17.853Z,11.60
2023-05-22T05:52:45.246Z,9.98
2023-05-22T05:55:12.192Z,18.77
2023-05-22T05:57:42.343Z,12.77
2023-05-22T06:00:14.798Z,10.40
2023-05-22T06:02:50.709Z,11.10
2023-05-22T06:05:19.579Z,12.57
2023-05-22T06:07:48.374Z,8.85
2023-05-22T06:10:15.746Z,11.45
2023-05-22T06:12:42.691Z,10.25
2023-05-22T06:15:09.629Z,11.35
2023-05-22T06:17:37.697Z,10.10
2023-05-22T06:20:08.316Z,11.75
2023-05-22T06:22:35.190Z,12.32
2023-05-22T06:25:02.089Z,9.90
2023-05-22T06:27:29.027Z,11.12
2023-05-22T06:29:56.635Z,11.70
2023-05-22T06:32:24.324Z,12.52
2023-05-22T06:34:51.379Z,11.18
2023-05-22T06:37:18.250Z,10.50
2023-05-22T06:39:45.164Z,13.35
2023-05-22T06:42:12.078Z,14.50
2023-05-22T06:44:38.960Z,12.00
2023-05-22T06:47:06.092Z,18.70
2023-05-22T06:49:33.013Z,10.40
2023-05-22T06:51:59.924Z,9.68
2023-05-22T06:54:28.874Z,10.68
2023-05-22T06:56:57.003Z,13.65
2023-05-22T06:59:23.874Z,11.50
2023-05-22T07:01:50.813Z,13.65
2023-05-22T07:04:17.775Z,11.93
2023-05-22T07:06:46.954Z,11.55
2023-05-22T07:09:15.640Z,11.65
2023-05-22T07:11:44.041Z,11.23
2023-05-22T07:14:12.780Z,11.05
2023-05-22T07:16:41.106Z,11.20
2023-05-22T07:19:09.355Z,10.45
2023-05-22T07:21:36.351Z,12.23
2023-05-22T07:24:09.666Z,11.82
2023-05-22T07:26:37.044Z,10.60
2023-05-22T07:29:04.677Z,11.73
2023-05-22T07:31:33.805Z,9.77
2023-05-22T07:34:00.800Z,10.15
2023-05-22T07:36:27.764Z,12.15
2023-05-22T07:38:55.707Z,10.82
2023-05-22T07:41:22.918Z,13.75
2023-05-22T07:43:50.369Z,10.63
2023-05-22T07:46:17.358Z,12.15
2023-05-22T07:48:44.448Z,11.02
2023-05-22T07:51:11.358Z,10.40
2023-05-22T07:53:38.204Z,11.18
2023-05-22T07:56:05.364Z,11.60
2023-05-22T07:58:32.332Z,10.20
2023-05-22T08:00:59.252Z,11.07
2023-05-22T08:03:26.357Z,12.82
2023-05-22T08:05:53.401Z,12.23
2023-05-22T08:08:21.524Z,13.57
2023-05-22T08:11:03.058Z,12.15
2023-05-22T08:13:31.436Z,10.75
2023-05-22T08:16:00.518Z,10.60
2023-05-22T08:18:29.652Z,10.10
2023-05-22T08:20:57.131Z,10.10
2023-05-22T08:23:24.074Z,11.73
2023-05-22T08:25:50.954Z,11.50
2023-05-22T08:28:27.692Z,9.65
2023-05-22T08:30:55.401Z,11.18
2023-05-22T08:33:22.612Z,11.40
2023-05-22T08:35:49.624Z,12.80
2023-05-22T08:38:17.656Z,10.02
2023-05-22T08:40:48.182Z,10.52
2023-05-22T08:43:15.691Z,9.32
2023-05-22T08:45:44.011Z,10.40
2023-05-22T08:48:13.571Z,12.07
2023-05-22T08:50:43.515Z,9.30
2023-05-22T08:53:13.290Z,8.40
2023-05-22T08:55:40.635Z,9.10
2023-05-22T08:58:08.760Z,10.75
2023-05-22T09:00:35.732Z,13.55
2023-05-22T09:03:03.230Z,9.25
2023-05-22T09:05:30.661Z,9.73
2023-05-22T09:08:02.626Z,9.98
2023-05-22T09:10:32.481Z,12.27
2023-05-22T09:13:09.689Z,11.15
2023-05-22T09:15:37.415Z,9.95
2023-05-22T09:18:05.608Z,8.32
2023-05-22T09:20:36.740Z,11.07
2023-05-22T09:23:14.645Z,10.63
2023-05-22T09:25:43.300Z,10.80
2023-05-22T09:28:11.810Z,9.50
2023-05-22T09:30:39.150Z,12.32
2023-05-22T09:33:09.544Z,8.68
2023-05-22T09:35:39.267Z,9.43
2023-05-22T09:38:06.764Z,9.48
2023-05-22T09:40:35.192Z,10.98
2023-05-22T09:43:07.492Z,8.15
2023-05-22T09:45:38.085Z,12.32
2023-05-22T09:48:09.399Z,9.75
2023-05-22T09:50:42.634Z,9.65
2023-05-22T09:53:10.898Z,10.63
2023-05-22T09:55:38.483Z,10.68
2023-05-22T09:58:07.493Z,8.77
2023-05-22T10:00:34.993Z,13.32
2023-05-22T10:03:16.232Z,10.00
2023-05-22T10:05:51.441Z,9.32
2023-05-22T10:08:26.042Z,7.85
2023-05-22T10:10:53.401Z,12.68
2023-05-22T10:13:21.709Z,8.98
2023-05-22T10:15:50.000Z,8.93
2023-05-22T10:18:17.684Z,9.93
2023-05-22T10:20:47.556Z,9.98
2023-05-22T10:23:16.705Z,8.10
2023-05-22T10:25:46.737Z,8.85
2023-05-22T10:28:28.664Z,9.10
2023-05-22T10:31:27.318Z,8.45
2023-05-22T10:34:01.234Z,8.55
2023-05-22T10:37:00.416Z,7.80
2023-05-22T10:39:45.634Z,9.13
2023-05-22T10:42:13.963Z,9.65
2023-05-22T10:44:41.266Z,10.18
2023-05-22T10:47:13.583Z,10.25
2023-05-22T10:49:47.238Z,7.45
2023-05-22T10:52:15.130Z,7.45
2023-05-22T10:54:46.098Z,7.80
2023-05-22T10:57:17.561Z,9.30
2023-05-22T10:59:49.142Z,9.20
2023-05-22T11:02:29.550Z,8.13
2023-05-22T11:05:11.808Z,9.07
2023-05-22T11:07:41.549Z,8.45
2023-05-22T11:10:10.626Z,10.32
2023-05-22T11:12:37.610Z,13.15
2023-05-22T11:15:09.639Z,9.80
2023-05-22T11:17:39.632Z,8.32
2023-05-22T11:20:24.593Z,16.45
2023-05-22T11:23:00.131Z,8.38
2023-05-22T11:25:28.515Z,13.37
2023-05-22T11:27:56.306Z,7.37
2023-05-22T11:30:28.093Z,10.38
2023-05-22T11:32:55.083Z,9.45
2023-05-22T11:35:22.553Z,7.47
2023-05-22T11:37:51.212Z,7.95
2023-05-22T11:40:24.626Z,9.77
2023-05-22T11:42:52.636Z,11.80
2023-05-22T11:45:19.608Z,8.38
2023-05-22T11:47:46.780Z,8.77
2023-05-22T11:50:15.069Z,7.62
2023-05-22T11:52:46.122Z,8.95
2023-05-22T11:55:13.064Z,10.02
2023-05-22T11:57:42.581Z,10.23
2023-05-22T12:00:10.939Z,10.10
2023-05-22T12:02:38.096Z,11.40
2023-05-22T12:05:05.686Z,8.18
2023-05-22T12:07:32.627Z,7.97
2023-05-22T12:10:00.323Z,8.38
2023-05-22T12:12:27.262Z,9.35
2023-05-22T12:14:54.228Z,10.35
2023-05-22T12:17:21.154Z,8.02
2023-05-22T12:19:48.168Z,7.87
2023-05-22T12:22:15.306Z,8.90
2023-05-22T12:24:48.409Z,8.75
2023-05-22T12:27:15.803Z,8.10
2023-05-22T12:29:43.461Z,9.18
2023-05-22T12:32:11.928Z,9.73
2023-05-22T12:34:46.256Z,9.80
2023-05-22T12:37:22.940Z,7.97
2023-05-22T12:39:59.701Z,10.15
2023-05-22T12:42:38.617Z,8.73
2023-05-22T12:45:07.198Z,8.38
2023-05-22T12:47:34.252Z,6.47
2023-05-22T12:50:01.131Z,7.68
2023-05-22T12:52:28.800Z,10.13
2023-05-22T12:54:55.881Z,11.38
2023-05-22T12:57:22.759Z,8.15
2023-05-22T12:59:49.657Z,9.18
2023-05-22T13:02:16.548Z,7.15
2023-05-22T13:04:43.490Z,6.40
2023-05-22T13:07:10.536Z,7.10
2023-05-22T13:09:37.395Z,7.07
2023-05-22T13:12:04.495Z,6.95
2023-05-22T13:14:37.702Z,8.95
2023-05-22T13:17:04.743Z,5.68
2023-05-22T13:19:31.767Z,7.05
2023-05-22T13:21:58.864Z,5.20
2023-05-22T13:24:25.725Z,6.40
2023-05-22T13:26:52.577Z,6.68
2023-05-22T13:29:19.415Z,7.45
2023-05-22T13:31:46.294Z,7.53
2023-05-22T13:34:13.245Z,6.32
2023-05-22T13:36:40.243Z,7.25
2023-05-22T13:39:07.147Z,6.75
2023-05-22T13:41:34.054Z,5.32
2023-05-22T13:44:00.959Z,5.65
2023-05-22T13:46:28.491Z,5.10
2023-05-22T13:48:55.505Z,7.60
2023-05-22T13:51:22.398Z,8.98
2023-05-22T13:53:49.245Z,8.45
2023-05-22T13:56:16.254Z,9.38
2023-05-22T13:58:43.165Z,7.95
2023-05-22T14:01:10.320Z,7.70
2023-05-22T14:03:40.720Z,5.40
2023-05-22T14:06:07.874Z,6.00
2023-05-22T14:08:34.803Z,7.65
2023-05-22T14:11:01.723Z,4.80
2023-05-22T14:13:28.629Z,7.03
2023-05-22T14:15:55.527Z,4.90
2023-05-22T14:18:22.420Z,5.10
2023-05-22T14:20:49.387Z,5.57
2023-05-22T14:23:16.342Z,4.78
2023-05-22T14:25:43.413Z,5.37
2023-05-22T14:28:11.030Z,5.72
2023-05-22T14:30:38.279Z,5.78
2023-05-22T14:33:05.928Z,6.30
2023-05-22T14:35:33.129Z,9.02
2023-05-22T14:38:00.095Z,5.85
2023-05-22T14:40:26.950Z,6.55
2023-05-22T14:42:54.502Z,7.07
2023-05-22T14:45:21.585Z,7.72
2023-05-22T14:47:48.503Z,7.57
2023-05-22T14:50:19.712Z,8.52
2023-05-22T14:52:47.784Z,7.57
2023-05-22T14:55:14.983Z,8.68
2023-05-22T14:57:41.873Z,10.70
2023-05-22T15:00:10.203Z,8.70
2023-05-22T15:02:37.489Z,8.82
2023-05-22T15:05:04.821Z,7.53
2023-05-22T15:07:43.130Z,8.10
2023-05-22T15:10:11.452Z,8.77
2023-05-22T15:12:38.394Z,8.27
2023-05-22T15:15:05.631Z,8.73
2023-05-22T15:17:32.568Z,8.57
2023-05-22T15:19:59.608Z,9.25
2023-05-22T15:22:26.508Z,9.43
2023-05-22T15:25:09.822Z,8.15
2023-05-22T15:27:36.708Z,6.72
2023-05-22T15:30:04.631Z,9.32
2023-05-22T15:32:34.577Z,8.10
2023-05-22T15:35:01.699Z,17.98
2023-05-22T15:37:32.334Z,9.15
2023-05-22T15:40:01.656Z,8.52
2023-05-22T15:42:28.882Z,7.35
2023-05-22T15:44:55.879Z,7.37
2023-05-22T15:47:22.806Z,7.87
2023-05-22T15:49:49.799Z,8.10
2023-05-22T15:52:17.199Z,7.62
2023-05-22T15:54:44.126Z,7.53
2023-05-22T15:57:11.202Z,9.95
2023-05-22T15:59:38.104Z,7.87
2023-05-22T16:02:05.257Z,7.80
2023-05-22T16:04:33.034Z,8.65
2023-05-22T16:06:59.900Z,8.63
2023-05-22T16:09:26.807Z,10.13
2023-05-22T16:11:53.752Z,8.65
2023-05-22T16:14:20.611Z,9.15
2023-05-22T16:16:47.526Z,7.40
2023-05-22T16:19:14.521Z,8.93
2023-05-22T16:21:41.472Z,8.00
2023-05-22T16:24:14.035Z,9.27
2023-05-22T16:26:41.114Z,9.45
2023-05-22T16:29:09.172Z,10.55
2023-05-22T16:31:36.199Z,10.63
2023-05-22T16:34:03.810Z,8.05
2023-05-22T16:36:31.102Z,11.82
2023-05-22T16:38:58.052Z,8.00
2023-05-22T16:41:24.944Z,8.43
2023-05-22T16:43:51.900Z,8.80
2023-05-22T16:46:18.965Z,8.98
2023-05-22T16:48:45.958Z,8.60
2023-05-22T16:51:12.839Z,8.30
2023-05-22T16:53:41.979Z,9.50
2023-05-22T16:56:08.899Z,8.70
2023-05-22T16:58:36.014Z,8.77
2023-05-22T17:01:03.097Z,9.68
2023-05-22T17:03:30.164Z,8.98
2023-05-22T17:05:57.230Z,8.40
2023-05-22T17:08:24.144Z,8.90
2023-05-22T17:10:51.326Z,8.00
2023-05-22T17:13:20.834Z,7.32
2023-05-22T17:15:49.031Z,10.15
2023-05-22T17:18:19.991Z,7.55
2023-05-22T17:20:47.993Z,8.10
2023-05-22T17:23:15.400Z,9.00
2023-05-22T17:25:42.490Z,9.90
2023-05-22T17:28:09.557Z,11.07
2023-05-22T17:30:36.576Z,8.73
2023-05-22T17:33:03.853Z,11.75
2023-05-22T17:35:31.063Z,9.15
2023-05-22T17:37:58.012Z,10.25
2023-05-22T17:40:39.960Z,8.38
2023-05-22T17:43:11.471Z,8.02
2023-05-22T17:45:38.474Z,10.57
2023-05-22T17:48:07.299Z,16.52
2023-05-22T17:50:34.224Z,10.00
2023-05-22T17:53:01.099Z,10.10
2023-05-22T17:55:27.957Z,8.45
2023-05-22T17:57:55.094Z,8.50
2023-05-22T18:00:22.217Z,11.20
2023-05-22T18:02:49.139Z,10.60
2023-05-22T18:05:16.213Z,10.25
2023-05-22T18:07:43.691Z,9.00
2023-05-22T18:10:11.011Z,10.25
2023-05-22T18:12:38.664Z,9.73
2023-05-22T18:15:08.637Z,9.18
2023-05-22T18:17:35.907Z,10.82
2023-05-22T18:20:04.112Z,8.95
2023-05-22T18:22:31.220Z,10.32
2023-05-22T18:24:58.364Z,10.52
2023-05-22T18:27:25.278Z,8.70
2023-05-22T18:29:55.673Z,10.35
2023-05-22T18:32:22.916Z,10.20
2023-05-22T18:34:49.871Z,11.10
2023-05-22T18:37:16.798Z,12.20
2023-05-22T18:39:44.681Z,10.52
2023-05-22T18:42:11.773Z,9.10
2023-05-22T18:44:38.626Z,11.23
2023-05-22T18:47:06.132Z,10.00
2023-05-22T18:49:33.582Z,11.45
2023-05-22T18:52:00.476Z,10.32
2023-05-22T18:54:27.373Z,10.30
2023-05-22T18:56:54.293Z,10.13
2023-05-22T18:59:21.159Z,9.02
2023-05-22T19:01:48.034Z,9.93
2023-05-22T19:04:14.912Z,11.18
2023-05-22T19:06:42.188Z,11.43
2023-05-22T19:09:12.665Z,10.45
2023-05-22T19:11:39.615Z,10.02
2023-05-22T19:14:06.628Z,10.80
2023-05-22T19:16:33.548Z,9.55
2023-05-22T19:19:00.617Z,10.05
2023-05-22T19:21:27.568Z,11.95
2023-05-22T19:23:54.464Z,12.10
2023-05-22T19:26:21.313Z,11.15
2023-05-22T19:28:50.229Z,9.43
2023-05-22T19:31:17.752Z,12.43
2023-05-22T19:33:44.661Z,11.05
2023-05-22T19:36:11.641Z,11.60
2023-05-22T19:38:38.500Z,9.77
2023-05-22T19:41:05.400Z,11.07
2023-05-22T19:43:32.518Z,12.37
2023-05-22T19:45:59.492Z,9.60
2023-05-22T19:48:34.188Z,12.80
2023-05-22T19:51:01.193Z,9.98
2023-05-22T19:53:28.135Z,9.57
2023-05-22T19:55:55.057Z,10.90
2023-05-22T19:58:21.953Z,9.77
2023-05-22T20:00:48.975Z,11.50
2023-05-22T20:03:16.255Z,10.23
2023-05-22T20:05:43.188Z,11.15
2023-05-22T20:08:21.749Z,11.35
2023-05-22T20:10:48.788Z,11.75
2023-05-22T20:13:15.724Z,11.23
2023-05-22T20:15:42.621Z,11.45
2023-05-22T20:18:10.902Z,11.18
2023-05-22T20:20:38.104Z,11.07
2023-05-22T20:23:04.985Z,12.70
2023-05-22T20:25:32.036Z,10.32
2023-05-22T20:27:58.964Z,13.70
2023-05-22T20:30:25.940Z,9.77
2023-05-22T20:32:53.210Z,14.13
2023-05-22T20:35:20.327Z,10.13
2023-05-22T20:37:47.711Z,10.30
2023-05-22T20:40:16.131Z,12.10
2023-05-22T20:42:43.208Z,11.98
2023-05-22T20:45:13.608Z,8.80
2023-05-22T20:47:41.627Z,11.48
2023-05-22T20:50:09.265Z,9.60
2023-05-22T20:52:37.476Z,10.88
2023-05-22T20:55:05.201Z,9.88
2023-05-22T20:57:32.111Z,10.00
2023-05-22T20:59:59.975Z,10.50
2023-05-22T21:02:26.921Z,11.35
2023-05-22T21:04:53.820Z,12.52
2023-05-22T21:07:20.669Z,10.23
2023-05-22T21:09:47.602Z,9.90
2023-05-22T21:12:14.527Z,9.35
2023-05-22T21:14:43.595Z,14.20
2023-05-22T21:17:10.878Z,10.10
2023-05-22T21:19:39.766Z,9.95
2023-05-22T21:22:06.659Z,10.25
2023-05-22T21:24:33.532Z,9.35
2023-05-22T21:27:00.672Z,8.90
2023-05-22T21:29:27.585Z,10.50
2023-05-22T21:31:54.492Z,9.13
2023-05-22T21:34:21.376Z,13.18
2023-05-22T21:36:48.266Z,10.07
2023-05-22T21:39:16.367Z,8.57
2023-05-22T21:41:43.249Z,9.65
2023-05-22T21:44:10.209Z,12.40
2023-05-22T21:46:37.470Z,10.27
2023-05-22T21:49:06.264Z,9.93
2023-05-22T21:51:33.352Z,10.35
2023-05-22T21:54:00.286Z,10.10
2023-05-22T21:56:27.259Z,12.27
2023-05-22T21:58:54.151Z,10.23
2023-05-22T22:01:21.518Z,11.45
2023-05-22T22:03:48.494Z,12.88
2023-05-22T22:06:15.663Z,12.63
2023-05-22T22:08:42.538Z,11.02
2023-05-22T22:11:09.459Z,9.80
2023-05-22T22:13:36.658Z,9.85
2023-05-22T22:16:03.610Z,12.50
2023-05-22T22:18:33.132Z,10.60
2023-05-22T22:21:02.481Z,11.57
2023-05-22T22:23:29.887Z,10.57
2023-05-22T22:25:56.805Z,11.98
2023-05-22T22:28:24.758Z,11.70
2023-05-22T22:30:55.036Z,10.20
2023-05-22T22:33:22.956Z,10.73
2023-05-22T22:35:50.014Z,9.98
2023-05-22T22:38:17.994Z,12.40
2023-05-22T22:40:44.916Z,12.32
2023-05-22T22:43:11.904Z,15.35
2023-05-22T22:45:40.319Z,12.13
2023-05-22T22:48:07.569Z,11.45
2023-05-22T22:50:34.569Z,11.30
2023-05-22T22:53:01.723Z,12.88
2023-05-22T22:55:28.792Z,10.38
2023-05-22T22:57:55.854Z,11.40
2023-05-22T23:00:22.789Z,9.40
2023-05-22T23:02:49.698Z,11.15
2023-05-22T23:05:20.211Z,9.55
2023-05-22T23:07:48.306Z,9.85
2023-05-22T23:10:15.777Z,11.88
2023-05-22T23:12:42.869Z,11.07
2023-05-22T23:15:11.271Z,13.52
2023-05-22T23:17:38.504Z,9.35
2023-05-22T23:20:06.165Z,11.48
2023-05-22T23:22:33.061Z,11.32
2023-05-22T23:24:59.893Z,11.02
2023-05-22T23:27:26.986Z,11.38
2023-05-22T23:29:53.932Z,11.12
2023-05-22T23:32:21.648Z,10.20
2023-05-22T23:34:48.555Z,11.20
2023-05-22T23:37:15.614Z,11.20
2023-05-22T23:39:42.532Z,11.90
2023-05-22T23:42:12.542Z,11.38
2023-05-22T23:44:39.697Z,10.35
2023-05-22T23:47:07.049Z,11.40
2023-05-22T23:49:34.152Z,12.02
2023-05-22T23:52:01.027Z,14.85
2023-05-22T23:54:27.997Z,10.57
2023-05-22T23:56:54.923Z,11.45
2023-05-22T23:59:22.145Z,11.45
